ZL1CTS messages


fromtotime message
ZL1CTS WXBOT 09/01 20:35:47z Send another nearest{9537
ZL1CTS WXBOT 08/31 00:44:10z Send another nearest{2025
WXBOT ZL1CTS 08/31 00:37:25z Reply Currently at DOUGLAS, Temp:73 wind:194@7,na
ZL1CTS WXBOT 08/31 00:37:17z Send another wxnow{1788
ZL1CTS WXBOT 08/31 00:36:20z Send another nearest{1836
WXBOT ZL1CTS 08/31 00:29:06z Reply 12in.
WXBOT ZL1CTS 08/31 00:29:01z Reply ZL1CTS-13 61,wind:227@6 g44,997.2mbar,rh:91%,rain:1h:0.03in.,24h:0.
ZL1CTS WXBOT 08/31 00:28:53z Send another cwop{1625
WXBOT ZL1CTS 08/31 00:27:06z Reply 2in.
WXBOT ZL1CTS 08/31 00:27:01z Reply ZL1CTS-2 58,wind:208@4 g44,997.7mbar,rh:93%,rain:1h:0.03in.,24h:0.1
ZL1CTS WXBOT 08/31 00:26:54z Send another cwop{1540
ZL1CTS WXBOT 08/31 00:25:01z Send another ZL1CTS-13 cwop{1485
ZL1CTS WXBOT 08/31 00:24:44z Send another ZL1CTS-13 cwop{1432
ZL1CTS WXBOT 08/31 00:24:17z Send another metar{1463
WXBOT ZL1CTS 08/31 00:23:10z Reply , light rain
WXBOT ZL1CTS 08/31 00:23:06z Reply Currently at Taunton, Taunton Municipal Airport, Temp:72 wind:999@5
ZL1CTS WXBOT 08/31 00:22:57z Send another current{1381
WXBOT ZL1CTS 08/31 00:22:19z Reply .12in.
WXBOT ZL1CTS 08/31 00:22:14z Reply ZL1CTS-13 60,wind:229@11 g26,997.4mbar,rh:94%,rain:1h:0.03in.,24h:0
ZL1CTS WXBOT 08/29 08:05:52z Send another WX{7925
ZL1CTS WXBOT 08/28 22:29:52z Send another wx{3800
REPEAT ZL1CTS 08/28 20:40:19z Reply ^ld^WXBOT:41.28333,-122.31667,0,0,0.0,1787948911{2890
ZL1CTS REPEAT 08/28 20:37:41z Send another ld WXBOT{8737
ZL1CTS WXBOT 08/28 20:37:26z Send another WX{8736
ZL1CTS WXBOT 08/28 20:35:11z Send another WX{8735
ZL1CTS WXBOT 08/28 20:33:45z Send another Urenui{8734
WXBOT ZL1CTS 08/28 03:44:21z Reply Sorry, unable to get a forecast for location -38.97167/174.451
ZL1CTS WXBOT 08/28 03:44:12z Send another Waitara{7351
ZL1CTS-10 ZL1CTS 08/28 03:30:03z Reply Perfect{8
ZL1CTS-10 ZL1CTS 08/28 03:29:22z Reply Reply{7
ZL1CTS ZL1CTS-10 08/28 03:28:59z Send another test{6983
ZL1CTS WXBOT 08/28 03:26:53z Send another Waitara{6926
ZL1CTS WXBOT 08/28 03:20:57z Send another 4377{6769
ZL1CTS WXBOT 08/28 03:07:00z Send another WX{8561
ZL1CTS WXBOT 08/28 03:05:29z Send another urenui{6397
ZL1CTS WXBOT 08/28 02:52:43z Send another urenui{6394
ZL1CTS WXBOT 08/27 20:44:19z Send another urenui{7497
ZL1CTS WXBOT 08/13 23:44:06z Send another urenui{9735
WXBOT ZL1CTS 08/13 22:59:41z Reply Sorry, unable to get a forecast for location 54.70083/25.24317
ZL1CTS WXBOT 08/13 22:59:32z Send another weather{8582
ZL1CTS WXBOT 08/13 22:56:10z Send another wx{8495
ZL1CTS-10 ZL1CTS 07/29 04:37:37z Reply Boo{3
ZL1CTS-10 ZL1CTS 07/29 04:37:08z Reply G{5
ZL1CTS ZL1CTS-10 07/29 04:36:03z Send another tyre{1263
ZL1CTS-10 ZL1CTS 07/29 04:35:53z Reply Fff{6
ZL1CTS-10 ZL1CTS 07/29 04:35:13z Reply Return message to digi pi{4
ZL1CTS ZL1CTS-10 07/29 04:33:28z Send another test{286
ZL1CTS ZL1CTS-10 07/29 04:33:22z Send another llll{289
ZL1CTS ZL1CTS-10 07/29 04:33:15z Send another hhhhh{288
ZL1CTS ZL1CTS-10 07/29 04:32:53z Send another ewrtyui{287
ZL1CTS-10 ZL1CTS 07/29 04:31:40z Reply Yep{2
ZL1CTS-10 ZL1CTS 07/29 04:31:40z Reply Ready to go {1
ZL1CTS ZL1CTS-10 07/29 04:30:07z Send another test from digi pi 2{285
ZL1CTS ZL1CTS-10 07/29 04:29:35z Send another test from digi pi 2{284
ZL1CTS ZL1CTS-10 07/29 04:26:08z Send another test from digi pi{283
ZL1CTS WXBOT 07/29 04:25:10z Send another weather{282
WXBOT ZL1CTS 07/16 20:45:43z Reply Sorry, unable to get a forecast for location -38.9725/174.45083
ZL1CTS WXBOT 07/16 20:45:34z Send another WX{423